Hoxeyville, Michigan
Current Conditions -  °F | °C
As of 7:15 AM on Sunday 23 Nov 2014 (Local Time) from KCAD Reporting Station
Moderate Fog Moderate Fog  
Wind Chill: 37°   Ceiling: 100
Heat Index: 43°   Visibility: 0.5mi
Dew Point: 43°   Wind: 12mph
Humidity: 100%   Direction: 200°SSW
Pressure: 29.76"   Gusts: 23mph
Location:  44.2433°N, 85.5328°W
Report Text: KCAD 231215Z AUTO 20010G20KT 1/2SM FG OVC001 06/06 A2976 RMK AO2 T00620062
Loading
Personal Weather Stations






























Interactive Weather Map New forecast layout! Learn more

10-Day Weather Forecast

Advertisements
Track Severe Weather on mobile